Time;durP1;ratioP1;P1;durP2;ratioP2;P2;SDS_P1;SDS_P2;PMS_P1;PMS_P2;Temp;Humidity;BMP_temperature;BMP_pressure;BME280_temperature;BME280_humidity;BME280_pressure;Samples;Min_cycle;Max_cycle;Signal;HPM_P1;HPM_P2
2021/07/17 13:19:38;;;;;;;9.53;7.77;;;;;;;30.95;46.30;99645.42;262443;1091;102837;-69
2021/07/17 13:24:47;;;;;;;9.58;8.55;;;;;;;31.22;47.04;99648.94;257426;1104;114834;-68
2021/07/17 13:29:54;;;;;;;8.45;7.55;;;;;;;31.40;46.49;99641.69;257361;1104;114803;-68
2021/07/17 13:35:22;;;;;;;13.07;7.63;;;;;;;31.62;45.25;99640.73;256799;1100;114716;-68
2021/07/17 13:40:29;;;;;;;17.40;7.87;;;;;;;31.31;46.34;99641.19;255619;1099;114338;-68
2021/07/17 13:45:36;;;;;;;8.93;7.97;;;;;;;31.12;46.41;99629.18;256372;1104;115256;-69
2021/07/17 13:50:46;;;;;;;8.10;6.90;;;;;;;30.97;46.64;99624.63;257064;1104;115240;-69
2021/07/17 13:55:53;;;;;;;10.17;8.43;;;;;;;30.72;46.40;99613.30;255476;1096;115416;-68
2021/07/17 14:01:05;;;;;;;11.13;9.10;;;;;;;30.73;47.19;99611.34;254399;1104;114842;-68
2021/07/17 14:06:11;;;;;;;8.17;7.47;;;;;;;30.87;46.67;99595.02;254629;1104;115789;-69
2021/07/17 14:11:16;;;;;;;11.85;8.73;;;;;;;31.00;46.66;99582.58;254479;1104;114590;-69
2021/07/17 14:16:21;;;;;;;19.73;9.45;;;;;;;30.95;47.16;99580.16;254277;1098;115540;-68
2021/07/17 14:21:25;;;;;;;10.78;8.05;;;;;;;31.04;46.97;99571.62;254287;1104;115525;-68
2021/07/17 14:26:30;;;;;;;16.25;9.23;;;;;;;30.75;47.38;99575.98;254837;1104;114819;-68
2021/07/17 14:31:37;;;;;;;10.52;8.78;;;;;;;30.47;47.10;99577.16;254392;1104;114666;-68
2021/07/17 14:36:43;;;;;;;10.93;8.07;;;;;;;30.54;47.46;99570.19;255628;1104;115107;-68
2021/07/17 14:41:47;;;;;;;11.73;8.38;;;;;;;30.66;47.35;99564.46;255226;1104;116893;-68
2021/07/17 14:46:52;;;;;;;12.97;8.80;;;;;;;30.77;47.53;99565.41;254569;1104;139060;-68
2021/07/17 14:51:57;;;;;;;12.43;8.50;;;;;;;30.86;47.54;99576.92;254758;1104;115653;-68
2021/07/17 14:57:03;;;;;;;10.35;8.08;;;;;;;30.86;47.42;99565.91;256136;1104;114773;-69
2021/07/17 15:02:09;;;;;;;8.85;7.95;;;;;;;30.87;47.20;99569.46;254260;1104;115515;-68
2021/07/17 15:07:14;;;;;;;9.20;8.33;;;;;;;30.58;47.57;99569.07;255611;1100;115254;-68
2021/07/17 15:12:21;;;;;;;9.33;8.43;;;;;;;30.36;47.72;99567.95;256084;1104;115481;-68
2021/07/17 15:17:27;;;;;;;10.60;8.27;;;;;;;30.45;47.79;99564.95;255700;1104;115164;-68
2021/07/17 15:22:32;;;;;;;12.38;8.58;;;;;;;30.52;47.14;99550.50;255510;1099;114493;-68
2021/07/17 15:27:40;;;;;;;11.35;8.28;;;;;;;30.63;47.49;99551.45;254967;1104;115587;-68
2021/07/17 15:32:49;;;;;;;10.43;8.03;;;;;;;30.68;47.25;99549.16;256725;1104;115095;-69
2021/07/17 15:37:54;;;;;;;;;;;;;;;30.81;47.19;99546.98;255732;1104;115280;-69
2021/07/17 15:42:59;;;;;;;13.87;9.57;;;;;;;30.82;47.60;99540.31;258167;1104;102698;-69
2021/07/17 15:48:04;;;;;;;9.40;7.30;;;;;;;30.84;47.25;99540.73;257321;1104;115046;-69
2021/07/17 15:53:11;;;;;;;12.97;8.50;;;;;;;30.83;47.14;99543.85;255432;1104;114801;-69
2021/07/17 15:58:16;;;;;;;11.73;8.90;;;;;;;30.80;46.62;99542.64;256719;1104;115088;-69
2021/07/17 16:03:21;;;;;;;13.10;9.40;;;;;;;30.75;46.67;99553.97;256617;1104;115051;-69
2021/07/17 16:08:26;;;;;;;14.90;7.77;;;;;;;30.67;47.54;99549.53;255991;1104;114686;-68
2021/07/17 16:13:30;;;;;;;14.10;7.90;;;;;;;30.58;47.41;99544.31;254895;1100;115332;-68
2021/07/17 16:18:34;;;;;;;11.73;8.30;;;;;;;30.52;47.48;99542.25;254751;1104;115402;-68
2021/07/17 16:23:39;;;;;;;9.63;8.77;;;;;;;30.38;46.64;99538.13;255374;1104;114878;-69
2021/07/17 16:28:45;;;;;;;8.80;7.90;;;;;;;30.30;47.40;99530.94;255318;1104;115967;-68
2021/07/17 16:33:50;;;;;;;11.13;8.28;;;;;;;30.24;47.99;99537.16;254408;1104;116441;-68
2021/07/17 16:38:55;;;;;;;10.33;9.23;;;;;;;30.14;47.97;99530.33;254697;1104;138261;-68
2021/07/17 16:44:00;;;;;;;22.28;9.30;;;;;;;30.05;47.73;99538.04;254830;1104;116222;-68
2021/07/17 16:49:04;;;;;;;;;;;;;;;30.01;48.14;99545.44;254618;1104;115813;-68
2021/07/17 16:54:10;;;;;;;17.88;10.05;;;;;;;29.90;48.41;99541.72;255847;1104;103062;-68
2021/07/17 16:59:16;;;;;;;13.55;9.73;;;;;;;29.77;48.93;99538.36;255649;1104;115705;-68
2021/07/17 17:04:22;;;;;;;10.60;8.70;;;;;;;29.70;49.00;99540.98;254944;1104;114751;-68
2021/07/17 17:09:28;;;;;;;14.47;8.70;;;;;;;29.58;50.04;99541.98;254657;1104;115433;-68
2021/07/17 17:14:32;;;;;;;10.00;8.30;;;;;;;29.50;50.08;99537.52;255381;1104;115621;-69
2021/07/17 17:19:38;;;;;;;14.13;9.77;;;;;;;29.42;50.75;99544.83;256468;1104;116732;-68
2021/07/17 17:24:44;;;;;;;12.40;9.17;;;;;;;29.32;50.50;99550.13;256843;1104;115613;-68
2021/07/17 17:29:50;;;;;;;11.83;9.30;;;;;;;29.21;50.71;99547.17;256149;1104;115857;-68
2021/07/17 17:34:55;;;;;;;14.78;9.60;;;;;;;29.08;51.24;99554.75;254604;1104;115699;-68
2021/07/17 17:40:00;;;;;;;13.10;8.85;;;;;;;28.94;51.37;99559.19;256002;1100;115949;-68
2021/07/17 17:45:07;;;;;;;10.13;9.13;;;;;;;28.78;52.00;99572.93;255823;1104;116818;-69
2021/07/17 17:50:15;;;;;;;15.67;9.07;;;;;;;28.58;52.65;99574.87;256445;1100;116442;-68
2021/07/17 17:55:20;;;;;;;15.10;9.37;;;;;;;28.36;53.33;99579.09;256933;1104;115676;-68
2021/07/17 18:00:25;;;;;;;11.53;10.33;;;;;;;28.14;53.74;99580.50;256239;1104;115865;-68
2021/07/17 18:05:31;;;;;;;10.03;8.33;;;;;;;27.95;54.33;99587.86;255735;1104;117249;-68
2021/07/17 18:10:37;;;;;;;11.78;10.58;;;;;;;27.75;54.98;99598.73;254660;1104;116157;-68
2021/07/17 18:15:43;;;;;;;19.38;10.18;;;;;;;27.57;55.48;99596.63;254613;1104;116858;-68
2021/07/17 18:20:49;;;;;;;12.83;9.20;;;;;;;27.36;56.12;99610.56;254446;1104;117153;-68
2021/07/17 18:25:55;;;;;;;17.00;8.55;;;;;;;27.11;55.33;99620.82;254640;1104;115866;-67
2021/07/17 18:31:01;;;;;;;10.60;7.83;;;;;;;26.72;55.05;99605.96;255283;1104;117349;-68
2021/07/17 18:36:06;;;;;;;10.68;8.60;;;;;;;26.35;55.22;99616.95;254479;1104;115796;-68
2021/07/17 18:41:13;;;;;;;12.10;7.65;;;;;;;26.04;55.39;99624.88;255094;1099;115324;-67
2021/07/17 18:46:18;;;;;;;9.10;7.75;;;;;;;25.77;55.89;99626.32;254706;1104;115315;-67
2021/07/17 18:51:23;;;;;;;8.93;8.03;;;;;;;25.54;56.35;99609.52;254492;1104;115704;-67
2021/07/17 18:56:27;;;;;;;8.25;7.40;;;;;;;25.29;57.58;99610.59;254486;1104;116121;-68
2021/07/17 19:01:33;;;;;;;8.10;7.20;;;;;;;25.02;57.81;99611.95;254321;1104;116387;-68
2021/07/17 19:06:40;;;;;;;15.40;8.28;;;;;;;24.85;58.51;99604.66;255967;1104;116389;-68
2021/07/17 19:11:48;;;;;;;8.60;7.80;;;;;;;24.77;58.66;99613.69;254957;1104;115921;-68
2021/07/17 19:16:53;;;;;;;8.13;7.10;;;;;;;24.67;59.40;99612.18;256230;1098;115616;-68
2021/07/17 19:21:58;;;;;;;8.80;7.53;;;;;;;24.57;59.86;99620.73;254771;1104;116030;-67
2021/07/17 19:27:03;;;;;;;7.93;7.20;;;;;;;24.47;59.95;99621.91;256080;1104;116147;-68
2021/07/17 19:32:08;;;;;;;11.00;8.57;;;;;;;24.41;60.28;99641.52;256330;1104;115702;-67
2021/07/17 19:37:12;;;;;;;16.40;6.38;;;;;;;24.33;60.72;99639.63;256430;1104;115629;-67
2021/07/17 19:42:18;;;;;;;13.13;7.93;;;;;;;24.27;61.18;99621.87;255438;1104;115417;-67
2021/07/17 19:47:27;;;;;;;13.70;7.85;;;;;;;24.17;61.18;99625.72;257478;1104;115746;-67
2021/07/17 19:52:33;;;;;;;11.00;6.67;;;;;;;24.08;61.82;99633.15;257499;1104;117088;-67
2021/07/17 19:57:39;;;;;;;11.00;8.07;;;;;;;23.98;61.81;99626.13;256801;1104;204528;-67
2021/07/17 20:02:46;;;;;;;9.50;7.87;;;;;;;23.92;62.34;99632.07;257499;1104;115629;-67
2021/07/17 20:07:53;;;;;;;9.20;8.30;;;;;;;23.93;62.27;99628.23;256692;1104;114752;-68
2021/07/17 20:12:59;;;;;;;10.18;7.55;;;;;;;23.89;62.93;99651.78;255910;1104;116071;-68
2021/07/17 20:18:05;;;;;;;10.23;8.53;;;;;;;23.72;62.83;99656.16;255351;1104;114958;-67
2021/07/17 20:23:12;;;;;;;11.90;7.80;;;;;;;23.59;63.42;99665.30;255110;1104;114964;-68
2021/07/17 20:28:16;;;;;;;8.18;7.08;;;;;;;23.46;63.60;99671.70;254996;1104;115521;-68
2021/07/17 20:33:20;;;;;;;7.68;6.93;;;;;;;23.44;63.95;99688.34;254798;1104;116325;-68
2021/07/17 20:38:29;;;;;;;8.70;7.70;;;;;;;23.35;63.82;99692.17;254347;1104;116604;-68
2021/07/17 20:43:34;;;;;;;9.03;7.58;;;;;;;23.36;64.48;99693.78;254397;1104;115555;-69
2021/07/17 20:48:41;;;;;;;11.93;8.38;;;;;;;23.35;64.64;99690.25;254183;1104;116885;-68
2021/07/17 20:53:48;;;;;;;19.40;8.30;;;;;;;23.33;65.16;99714.25;254267;1104;117517;-67
2021/07/17 20:58:53;;;;;;;11.98;7.88;;;;;;;23.27;64.96;99720.16;254329;1104;115134;-69
2021/07/17 21:03:59;;;;;;;9.97;7.87;;;;;;;23.27;65.30;99717.45;255508;1088;115853;-68
2021/07/17 21:09:05;;;;;;;11.25;9.13;;;;;;;23.24;65.66;99716.16;255250;1104;116357;-68
2021/07/17 21:14:10;;;;;;;9.63;7.33;;;;;;;23.21;65.79;99716.02;254385;1104;115121;-69
2021/07/17 21:19:15;;;;;;;10.53;7.70;;;;;;;23.14;65.93;99703.70;253939;1104;116653;-67
2021/07/17 21:24:19;;;;;;;15.30;8.05;;;;;;;23.14;66.10;99711.86;253919;1104;115288;-68
2021/07/17 21:29:23;;;;;;;11.93;8.53;;;;;;;23.10;66.26;99693.77;254023;1100;115050;-68
2021/07/17 21:34:27;;;;;;;8.93;7.70;;;;;;;22.98;66.46;99667.20;253914;1104;115433;-68
2021/07/17 21:39:33;;;;;;;11.05;7.53;;;;;;;22.90;66.58;99678.09;253885;1104;117656;-68
2021/07/17 21:44:38;;;;;;;8.60;7.80;;;;;;;22.86;66.56;99677.92;254696;1104;117353;-69
2021/07/17 21:49:44;;;;;;;7.65;6.95;;;;;;;22.85;67.03;99676.31;253924;1099;115200;-68
2021/07/17 21:54:53;;;;;;;9.58;8.73;;;;;;;22.80;66.92;99690.05;253717;1100;115888;-68
2021/07/17 21:59:57;;;;;;;12.23;9.40;;;;;;;22.76;67.19;99683.61;253806;1104;114919;-69
2021/07/17 22:05:02;;;;;;;12.98;7.60;;;;;;;22.72;67.33;99679.92;253653;1104;115659;-68
2021/07/17 22:10:07;;;;;;;9.87;7.37;;;;;;;22.66;67.17;99689.33;254953;1104;115517;-68
2021/07/17 22:15:12;;;;;;;10.23;7.63;;;;;;;22.57;67.28;99673.03;253798;1104;115561;-68
2021/07/17 22:20:18;;;;;;;8.05;6.80;;;;;;;22.54;67.48;99675.58;254159;1104;115131;-69
2021/07/17 22:25:24;;;;;;;7.68;6.95;;;;;;;22.47;67.46;99670.59;253867;1104;115429;-68
2021/07/17 22:30:33;;;;;;;7.05;6.45;;;;;;;22.40;67.63;99670.25;254944;1104;115212;-68
2021/07/17 22:35:40;;;;;;;8.80;7.60;;;;;;;22.32;67.70;99658.23;255781;1104;115175;-68
2021/07/17 22:40:47;;;;;;;8.80;7.23;;;;;;;22.23;67.96;99671.00;254662;1104;115854;-67
2021/07/17 22:45:53;;;;;;;8.23;7.40;;;;;;;22.15;67.82;99674.47;256302;1104;115533;-68
2021/07/17 22:50:58;;;;;;;8.28;7.05;;;;;;;22.09;67.94;99676.52;257168;1104;115258;-67
2021/07/17 22:56:03;;;;;;;8.97;7.17;;;;;;;21.99;68.12;99674.05;257193;1104;115597;-67
2021/07/17 23:01:08;;;;;;;8.03;6.38;;;;;;;21.89;68.70;99687.08;257050;1104;115284;-68
2021/07/17 23:06:14;;;;;;;8.32;7.56;;;;;;;21.85;68.55;99687.70;255458;1104;115832;-69
2021/07/17 23:11:19;;;;;;;7.25;6.70;;;;;;;21.84;68.76;99672.52;255649;1104;115258;-69
2021/07/17 23:16:25;;;;;;;9.53;7.73;;;;;;;21.87;68.95;99676.53;256547;1104;115986;-67
2021/07/17 23:21:29;;;;;;;10.65;7.35;;;;;;;21.86;69.16;99669.50;255083;1104;115071;-68
2021/07/17 23:26:33;;;;;;;10.23;7.30;;;;;;;21.84;68.99;99664.38;254388;1099;116210;-69
2021/07/17 23:31:38;;;;;;;8.73;7.03;;;;;;;21.80;69.35;99666.11;254727;1104;116912;-67
2021/07/17 23:36:42;;;;;;;6.83;6.28;;;;;;;21.72;69.42;99664.14;254081;1104;116536;-67
2021/07/17 23:41:47;;;;;;;13.93;7.98;;;;;;;21.68;69.37;99671.33;254106;1104;116022;-66
2021/07/17 23:46:52;;;;;;;8.07;6.93;;;;;;;21.59;69.64;99661.52;253943;1104;116183;-67
2021/07/17 23:51:57;;;;;;;9.30;7.68;;;;;;;21.50;69.58;99664.16;254568;1104;116488;-67
2021/07/17 23:57:03;;;;;;;11.88;8.20;;;;;;;21.44;70.01;99654.55;254118;1104;115983;-66
